Time;durP1;ratioP1;P1;durP2;ratioP2;P2;SDS_P1;SDS_P2;PMS_P1;PMS_P2;Temp;Humidity;BMP_temperature;BMP_pressure;BME280_temperature;BME280_humidity;BME280_pressure;Samples;Min_cycle;Max_cycle;Signal;HPM_P1;HPM_P2
2024/03/29 00:00:13;;;;;;;;;1.25;1.00;;;;;11.77;60.55;98460.88;5060238;28;46061;-54
2024/03/29 00:02:38;;;;;;;;;2.25;1.25;;;;;11.77;60.55;98453.00;5068691;28;45970;-54
2024/03/29 00:05:04;;;;;;;;;1.75;1.00;;;;;11.77;60.76;98453.00;5054034;28;73243;-55
2024/03/29 00:07:29;;;;;;;;;4.50;0.00;;;;;11.76;60.87;98451.34;5042904;28;45454;-55
2024/03/29 00:09:54;;;;;;;;;0.00;0.00;;;;;11.76;61.40;98459.22;5059353;28;73623;-54
2024/03/29 00:12:20;;;;;;;;;1.25;1.00;;;;;11.73;61.42;98449.75;5050970;28;47916;-54
2024/03/29 00:14:45;;;;;;;;;2.00;0.25;;;;;11.73;61.51;98455.00;5053536;28;45620;-58
2024/03/29 00:17:10;;;;;;;;;1.25;1.25;;;;;11.73;61.67;98454.19;5057037;28;57586;-56
2024/03/29 00:19:36;;;;;;;;;2.00;0.75;;;;;11.73;62.29;98452.38;5059244;28;70798;-54
2024/03/29 00:22:01;;;;;;;;;1.00;1.00;;;;;11.71;62.15;98454.28;5049950;28;57434;-55
2024/03/29 00:24:27;;;;;;;;;1.50;0.75;;;;;11.71;62.53;98450.81;5060561;28;45239;-49
2024/03/29 00:26:52;;;;;;;;;0.00;0.00;;;;;11.68;62.63;98436.13;5061409;28;45297;-56
2024/03/29 00:29:17;;;;;;;;;2.75;1.75;;;;;11.67;62.47;98426.63;5052521;28;45895;-54
2024/03/29 00:31:43;;;;;;;;;0.00;0.00;;;;;11.66;62.55;98429.34;5039051;28;60431;-54
2024/03/29 00:34:08;;;;;;;;;1.00;1.00;;;;;11.64;62.67;98418.13;5038955;28;67216;-53
2024/03/29 00:36:33;;;;;;;;;1.00;1.00;;;;;11.65;63.22;98414.56;5067913;28;59165;-56
2024/03/29 00:38:58;;;;;;;;;2.50;0.00;;;;;11.63;63.10;98406.78;5058559;28;73331;-55
2024/03/29 00:41:24;;;;;;;;;1.25;1.00;;;;;11.62;63.10;98401.69;5058658;28;68490;-54
2024/03/29 00:43:49;;;;;;;;;3.25;1.00;;;;;11.62;63.12;98404.31;5042132;28;73499;-53
2024/03/29 00:46:14;;;;;;;;;0.75;0.50;;;;;11.59;63.39;98393.06;5051976;28;45351;-54
2024/03/29 00:48:40;;;;;;;;;3.25;1.00;;;;;11.60;63.03;98391.31;5042928;28;61747;-56
2024/03/29 00:51:06;;;;;;;;;2.00;0.75;;;;;11.58;63.36;98398.44;5047938;28;46236;-53
2024/03/29 00:53:31;;;;;;;;;1.50;1.00;;;;;11.57;63.66;98394.13;5054459;28;45290;-51
2024/03/29 00:55:56;;;;;;;;;1.00;0.75;;;;;11.57;63.44;98399.38;5059884;28;66349;-52
2024/03/29 00:58:22;;;;;;;;;0.50;0.50;;;;;11.55;63.33;98396.84;5058162;28;72843;-55
2024/03/29 01:00:47;;;;;;;;;0.50;0.50;;;;;11.53;63.59;98387.44;5046160;28;63713;-55
2024/03/29 01:03:12;;;;;;;;;2.00;1.00;;;;;11.56;64.05;98400.31;5047397;28;64145;-56
2024/03/29 01:05:38;;;;;;;;;1.00;1.00;;;;;11.58;63.67;98401.91;5054766;28;65635;-56
2024/03/29 01:08:04;;;;;;;;;0.75;0.75;;;;;11.58;63.89;98388.78;5057220;28;45541;-52
2024/03/29 01:10:29;;;;;;;;;2.50;0.00;;;;;11.59;64.08;98403.56;5052665;28;45343;-56
2024/03/29 01:12:54;;;;;;;;;2.00;0.00;;;;;11.61;63.51;98406.06;5055650;28;45811;-57
2024/03/29 01:15:20;;;;;;;;;1.25;0.50;;;;;11.59;63.65;98397.47;5041276;28;68301;-52
2024/03/29 01:17:45;;;;;;;;;5.00;1.00;;;;;11.61;63.86;98400.81;5053873;28;58383;-52
2024/03/29 01:20:11;;;;;;;;;5.00;0.00;;;;;11.62;63.79;98402.53;5054384;28;74559;-53
2024/03/29 01:22:37;;;;;;;;;2.00;1.75;;;;;11.59;63.90;98400.09;5048976;28;45380;-54
2024/03/29 01:25:03;;;;;;;;;1.00;1.00;;;;;11.60;64.12;98391.31;5040994;28;69300;-56
2024/03/29 01:27:29;;;;;;;;;3.00;1.00;;;;;11.62;64.01;98385.97;5053975;28;45500;-56
2024/03/29 01:29:54;;;;;;;;;4.75;1.00;;;;;11.61;63.89;98392.97;5057038;28;69126;-54
2024/03/29 01:32:19;;;;;;;;;2.00;2.00;;;;;11.62;64.09;98404.31;5038843;28;73310;-56
2024/03/29 01:34:45;;;;;;;;;2.00;2.00;;;;;11.61;64.18;98411.31;5054497;28;65504;-57
2024/03/29 01:37:10;;;;;;;;;0.25;0.25;;;;;11.61;64.38;98403.44;5056835;28;61113;-52
2024/03/29 01:39:35;;;;;;;;;1.00;1.00;;;;;11.62;64.56;98405.13;5056475;28;72445;-53
2024/03/29 01:42:00;;;;;;;;;1.00;1.00;;;;;11.62;64.46;98404.31;5056746;28;62847;-53
2024/03/29 01:44:26;;;;;;;;;1.75;1.00;;;;;11.64;64.41;98418.13;5055539;28;68253;-54
2024/03/29 01:46:51;;;;;;;;;2.50;1.00;;;;;11.63;64.54;98401.56;5051534;28;45510;-55
2024/03/29 01:49:17;;;;;;;;;2.00;2.00;;;;;11.63;64.46;98430.38;5052459;28;63874;-54
2024/03/29 01:51:44;;;;;;;;;1.25;1.00;;;;;11.64;64.74;98418.13;5055350;28;73163;-54
2024/03/29 01:54:10;;;;;;;;;1.00;1.00;;;;;11.63;64.77;98405.97;5033324;28;45272;-53
2024/03/29 01:56:36;;;;;;;;;1.75;1.75;;;;;11.65;64.82;98410.19;5054457;28;45560;-54
2024/03/29 01:59:03;;;;;;;;;2.50;1.00;;;;;11.64;64.85;98399.78;5050018;28;45838;-54
2024/03/29 02:01:30;;;;;;;;;2.75;1.00;;;;;11.64;65.09;98411.09;5054582;28;45312;-54
2024/03/29 02:03:56;;;;;;;;;3.00;1.25;;;;;11.64;65.21;98386.69;5050740;28;45359;-53
2024/03/29 02:06:21;;;;;;;;;2.25;2.00;;;;;11.64;65.05;98379.66;5052678;28;45373;-54
2024/03/29 02:08:50;;;;;;;;;3.00;2.00;;;;;11.63;64.99;98372.75;5054219;28;45416;-56
2024/03/29 02:11:15;;;;;;;;;3.00;2.00;;;;;11.62;64.82;98394.66;5057177;28;45359;-55
2024/03/29 02:13:40;;;;;;;;;3.00;2.00;;;;;11.61;65.09;98424.41;5057182;28;69441;-55
2024/03/29 02:16:06;;;;;;;;;3.75;1.50;;;;;11.61;65.27;98386.91;5057353;28;63264;-54
2024/03/29 02:18:31;;;;;;;;;2.00;2.00;;;;;11.58;65.03;98414.16;5057437;28;46159;-52
2024/03/29 02:20:56;;;;;;;;;2.25;1.00;;;;;11.56;65.75;98405.53;5057128;28;74038;-54
2024/03/29 02:23:27;;;;;;;;;2.50;2.00;;;;;11.57;65.63;98396.75;5054434;28;66244;-53
2024/03/29 02:25:53;;;;;;;;;1.00;1.00;;;;;11.57;65.29;98397.59;5038030;28;45282;-54
2024/03/29 02:28:19;;;;;;;;;1.00;1.00;;;;;11.58;65.48;98409.75;5050579;28;46478;-56
2024/03/29 02:30:44;;;;;;;;;0.00;0.00;;;;;11.61;64.76;98413.94;5057282;28;45433;-52
2024/03/29 02:33:09;;;;;;;;;1.50;0.25;;;;;11.63;65.60;98409.41;5058384;28;66833;-53
2024/03/29 02:35:34;;;;;;;;;3.50;1.00;;;;;11.64;65.20;98400.63;5057593;28;55311;-52
2024/03/29 02:38:00;;;;;;;;;0.00;0.00;;;;;11.65;64.97;98397.06;5056913;28;58278;-52
2024/03/29 02:40:25;;;;;;;;;1.00;1.00;;;;;11.65;64.92;98396.22;5056817;28;75294;-52
2024/03/29 02:42:50;;;;;;;;;1.00;1.00;;;;;11.65;65.55;98402.31;5041378;28;45221;-51
2024/03/29 02:45:16;;;;;;;;;1.25;1.25;;;;;11.66;65.25;98414.44;5057719;28;45418;-54
2024/03/29 02:47:42;;;;;;;;;2.75;1.00;;;;;11.65;65.38;98394.47;5055902;28;45518;-54
2024/03/29 02:50:10;;;;;;;;;0.00;0.00;;;;;11.65;65.41;98407.56;5056549;28;45471;-49
2024/03/29 02:52:35;;;;;;;;;3.25;1.75;;;;;11.64;65.17;98420.75;5047315;28;45466;-50
2024/03/29 02:55:00;;;;;;;;;1.00;1.00;;;;;11.65;65.58;98423.28;5054068;28;54786;-52
2024/03/29 02:57:26;;;;;;;;;4.25;2.00;;;;;11.65;65.67;98423.28;5054048;28;73989;-56
2024/03/29 02:59:51;;;;;;;;;2.50;2.00;;;;;11.67;65.62;98420.53;5057283;28;72417;-56
2024/03/29 03:02:16;;;;;;;;;1.00;1.00;;;;;11.67;65.86;98425.75;5058773;28;45387;-54
2024/03/29 03:04:42;;;;;;;;;2.25;1.00;;;;;11.63;66.26;98425.13;5045382;28;72437;-56
2024/03/29 03:12:35;;;;;;;;;2.75;0.25;;;;;11.64;66.49;98418.13;5061092;28;45304;-51
2024/03/29 03:15:00;;;;;;;;;1.00;1.00;;;;;11.63;67.05;98425.13;5059269;28;72210;-54
2024/03/29 03:17:26;;;;;;;;;2.00;1.00;;;;;11.64;66.59;98418.97;5054108;28;75424;-55
2024/03/29 03:19:52;;;;;;;;;2.00;1.00;;;;;11.65;67.16;98422.41;5060848;28;45197;-55
2024/03/29 03:22:17;;;;;;;;;2.25;1.00;;;;;11.66;67.17;98421.47;5061418;28;45202;-53
2024/03/29 03:24:42;;;;;;;;;1.75;1.00;;;;;11.67;67.29;98420.53;5058672;28;68290;-56
2024/03/29 03:27:08;;;;;;;;;1.00;1.00;;;;;11.69;66.77;98434.38;5059219;28;74392;-56
2024/03/29 03:29:33;;;;;;;;;1.00;0.00;;;;;11.71;67.53;98437.72;5060262;28;73238;-53
2024/03/29 03:31:58;;;;;;;;;2.00;0.25;;;;;11.71;67.14;98441.19;5060384;28;65919;-56
2024/03/29 03:34:24;;;;;;;;;2.00;2.00;;;;;11.71;67.83;98432.50;5060106;28;73160;-53
2024/03/29 03:36:49;;;;;;;;;1.00;0.75;;;;;11.72;67.71;98436.75;5060484;28;46593;-52
2024/03/29 03:39:14;;;;;;;;;1.00;0.75;;;;;11.72;67.31;98445.50;5047429;28;72576;-56
2024/03/29 03:41:40;;;;;;;;;1.75;1.75;;;;;11.72;68.14;98442.00;5055401;28;62336;-51
2024/03/29 03:44:05;;;;;;;;;1.25;0.75;;;;;11.71;67.73;98454.28;5057232;28;73562;-50
2024/03/29 03:46:31;;;;;;;;;1.50;1.50;;;;;11.73;68.04;98451.56;5057058;28;74596;-52
2024/03/29 03:48:56;;;;;;;;;1.50;1.00;;;;;11.75;68.16;98447.88;5054761;27;45998;-49
2024/03/29 03:51:21;;;;;;;;;1.00;0.50;;;;;11.77;68.22;98440.78;5056311;28;67412;-55
2024/03/29 03:53:47;;;;;;;;;2.50;1.00;;;;;11.78;68.66;98449.47;5059477;28;72136;-51
2024/03/29 03:56:12;;;;;;;;;1.75;0.00;;;;;11.78;68.74;98449.47;5060530;28;72387;-51
2024/03/29 03:58:37;;;;;;;;;1.00;0.75;;;;;11.79;68.60;98451.13;5054617;28;72004;-51
2024/03/29 04:01:06;;;;;;;;;1.00;0.25;;;;;11.78;69.16;98462.56;5060081;28;57885;-55
2024/03/29 04:03:31;;;;;;;;;0.50;0.00;;;;;11.80;69.01;98471.16;5061346;28;45205;-55
2024/03/29 04:05:57;;;;;;;;;3.00;0.50;;;;;11.83;69.42;98475.34;5058465;28;73194;-57
2024/03/29 04:08:22;;;;;;;;;1.00;0.00;;;;;11.85;69.24;98478.72;5056735;28;45453;-55
2024/03/29 04:10:47;;;;;;;;;0.00;0.00;;;;;11.83;69.72;98478.81;5052585;28;45600;-55
2024/03/29 04:13:13;;;;;;;;;1.25;1.00;;;;;11.80;69.91;98484.25;5060217;28;63178;-55
2024/03/29 04:15:38;;;;;;;;;1.00;1.00;;;;;11.78;69.88;98492.22;5059229;28;75705;-55
2024/03/29 04:18:03;;;;;;;;;0.75;0.00;;;;;11.75;70.53;98487.19;5059872;28;73255;-57
2024/03/29 04:20:29;;;;;;;;;1.00;1.00;;;;;11.74;70.43;98490.75;5052768;28;45332;-56
2024/03/29 04:22:54;;;;;;;;;1.00;1.00;;;;;11.74;70.92;98498.63;5054611;28;67300;-54
2024/03/29 04:25:19;;;;;;;;;0.25;0.25;;;;;11.74;70.58;98503.03;5048431;28;69987;-54
2024/03/29 04:27:45;;;;;;;;;0.00;0.00;;;;;11.72;70.72;98518.00;5053261;28;73205;-55
2024/03/29 04:30:10;;;;;;;;;0.00;0.00;;;;;11.71;71.31;98511.91;5050181;28;68140;-55
2024/03/29 04:32:36;;;;;;;;;4.50;1.00;;;;;11.71;71.18;98524.19;5053882;28;45221;-54
2024/03/29 04:35:01;;;;;;;;;1.50;0.00;;;;;11.72;71.32;98525.84;5049951;28;68875;-54
2024/03/29 04:37:26;;;;;;;;;0.50;0.50;;;;;11.73;71.73;98533.63;5051080;28;71585;-55
2024/03/29 04:39:51;;;;;;;;;0.00;0.00;;;;;11.78;71.65;98530.69;5051288;28;68243;-52
2024/03/29 04:42:17;;;;;;;;;0.00;0.00;;;;;11.78;71.12;98539.38;5057204;28;70403;-55
2024/03/29 04:44:42;;;;;;;;;0.75;0.75;;;;;11.78;71.46;98530.69;5047011;28;66741;-55
2024/03/29 04:47:07;;;;;;;;;0.50;0.50;;;;;11.80;71.87;98541.06;5053452;28;46248;-56
2024/03/29 04:49:34;;;;;;;;;2.25;0.00;;;;;11.80;71.38;98548.94;5058089;28;52468;-57
2024/03/29 04:52:00;;;;;;;;;1.00;0.00;;;;;11.79;71.65;98548.06;5057423;28;45506;-56
2024/03/29 04:54:26;;;;;;;;;1.00;0.00;;;;;11.79;72.07;98553.31;5051631;28;47156;-53
2024/03/29 04:56:52;;;;;;;;;0.75;0.75;;;;;11.79;72.06;98555.94;5050613;28;46184;-54
2024/03/29 04:59:17;;;;;;;;;3.00;1.00;;;;;11.81;72.14;98553.22;5057618;28;45848;-55
2024/03/29 05:01:50;;;;;;;;;2.00;0.00;;;;;11.82;72.39;98554.91;5059918;28;45320;-55
2024/03/29 05:04:18;;;;;;;;;1.75;0.00;;;;;11.79;72.28;98550.69;5052305;28;45399;-52
2024/03/29 05:06:43;;;;;;;;;1.00;1.00;;;;;11.78;72.19;98551.66;5051338;28;45394;-55
2024/03/29 05:09:11;;;;;;;;;2.00;1.00;;;;;11.75;72.20;98555.31;5050219;28;45976;-55
2024/03/29 05:11:36;;;;;;;;;3.50;0.00;;;;;11.76;72.40;98561.41;5059048;28;45429;-53
2024/03/29 05:14:03;;;;;;;;;0.75;0.00;;;;;11.78;72.15;98562.13;5046775;28;57078;-56
2024/03/29 05:16:29;;;;;;;;;1.00;0.25;;;;;11.78;72.62;98564.75;5058848;28;45617;-56
2024/03/29 05:18:54;;;;;;;;;4.00;0.50;;;;;11.81;72.43;98555.84;5058835;28;45339;-54
2024/03/29 05:21:19;;;;;;;;;1.00;1.00;;;;;11.83;72.38;98559.19;5055736;28;48538;-56
2024/03/29 05:23:45;;;;;;;;;1.00;0.75;;;;;11.81;72.31;98569.81;5051538;28;76577;-56
2024/03/29 05:26:10;;;;;;;;;1.00;0.00;;;;;11.79;72.14;98579.53;5054504;28;71782;-57
2024/03/29 05:28:35;;;;;;;;;0.75;0.75;;;;;11.81;72.26;98589.91;5054909;28;62111;-56
2024/03/29 05:31:14;;;;;;;;;2.00;0.75;;;;;11.81;72.38;98595.16;5054469;28;73067;-54
2024/03/29 05:33:42;;;;;;;;;1.75;0.25;;;;;11.80;71.88;98596.09;5053653;28;46068;-56
2024/03/29 05:36:10;;;;;;;;;1.00;1.00;;;;;11.77;72.60;98600.63;5052205;28;45945;-55
2024/03/29 05:38:36;;;;;;;;;0.75;0.00;;;;;11.78;72.26;98601.44;5058604;28;45468;-57
2024/03/29 05:41:01;;;;;;;;;0.00;0.00;;;;;11.79;72.48;98613.59;5068311;28;45791;-56
2024/03/29 05:43:26;;;;;;;;;2.50;1.00;;;;;11.79;72.34;98616.22;5047291;28;72286;-53
2024/03/29 05:45:52;;;;;;;;;1.00;1.00;;;;;11.77;72.21;98615.47;5053737;28;72898;-54
2024/03/29 05:48:19;;;;;;;;;1.00;0.00;;;;;11.75;72.19;98610.34;5051217;28;45468;-55
2024/03/29 05:50:44;;;;;;;;;0.00;0.00;;;;;11.76;72.44;98608.56;5050549;28;45445;-56
2024/03/29 05:53:09;;;;;;;;;1.00;1.00;;;;;11.74;72.43;98607.84;5059072;28;45511;-56
2024/03/29 05:55:35;;;;;;;;;2.00;0.00;;;;;11.71;72.42;98606.25;5052563;28;45537;-54
2024/03/29 05:58:00;;;;;;;;;1.00;1.00;;;;;11.71;72.36;98605.41;5054712;28;45219;-56
2024/03/29 06:00:26;;;;;;;;;2.00;1.00;;;;;11.69;73.22;98596.81;5048699;28;50405;-54
2024/03/29 06:02:51;;;;;;;;;2.25;1.00;;;;;11.68;72.69;98598.56;5059099;28;45562;-56
2024/03/29 06:05:17;;;;;;;;;0.00;0.00;;;;;11.66;72.94;98595.22;5047074;28;72354;-53
2024/03/29 06:07:42;;;;;;;;;1.00;1.00;;;;;11.65;72.60;98606.66;5058668;28;45336;-52
2024/03/29 06:10:09;;;;;;;;;1.25;1.00;;;;;11.65;72.77;98603.19;5068472;28;74456;-53
2024/03/29 06:12:35;;;;;;;;;0.50;0.00;;;;;11.63;72.74;98591.97;5054429;28;46142;-55
2024/03/29 06:17:45;;;;;;;;;2.00;1.00;;;;;11.68;72.45;98611.69;5055908;28;45551;-56
2024/03/29 06:20:11;;;;;;;;;1.00;1.00;;;;;11.70;72.10;98607.19;5050306;28;45735;-52
2024/03/29 06:22:36;;;;;;;;;1.50;0.00;;;;;11.69;72.55;98600.28;5055374;28;45969;-55
2024/03/29 06:25:04;;;;;;;;;2.50;0.25;;;;;11.70;72.50;98594.06;5050909;28;73189;-55
2024/03/29 06:27:33;;;;;;;;;0.00;0.00;;;;;11.70;71.97;98601.09;5042336;27;45211;-51
2024/03/29 06:29:59;;;;;;;;;0.00;0.00;;;;;11.70;72.02;98601.94;5039071;28;45936;-53
2024/03/29 06:32:24;;;;;;;;;0.75;0.00;;;;;11.72;72.01;98610.56;5054228;28;53632;-54
2024/03/29 06:34:50;;;;;;;;;0.00;0.00;;;;;11.72;71.58;98612.31;5047565;28;53159;-51
2024/03/29 06:37:15;;;;;;;;;3.50;0.75;;;;;11.76;71.58;98616.44;5050605;28;45344;-53
2024/03/29 06:39:42;;;;;;;;;1.00;0.00;;;;;11.80;71.76;98619.69;5056338;28;45526;-53
2024/03/29 06:42:07;;;;;;;;;0.00;0.00;;;;;11.81;71.46;98609.13;5054369;28;47247;-52
2024/03/29 06:44:33;;;;;;;;;3.25;0.00;;;;;11.84;70.93;98621.16;5057511;28;73239;-54
2024/03/29 06:46:58;;;;;;;;;3.00;1.00;;;;;11.86;71.53;98608.78;5057047;28;45364;-59
2024/03/29 06:49:23;;;;;;;;;0.00;0.00;;;;;11.86;71.06;98620.09;5054990;28;73198;-57
2024/03/29 06:51:49;;;;;;;;;1.00;1.00;;;;;11.87;71.29;98631.44;5054665;28;74486;-52
2024/03/29 06:54:14;;;;;;;;;0.00;0.00;;;;;11.91;71.67;98628.53;5058396;28;45548;-60
2024/03/29 06:56:39;;;;;;;;;2.00;0.00;;;;;12.00;71.39;98636.75;5054400;28;67886;-60
2024/03/29 06:59:05;;;;;;;;;0.00;0.00;;;;;12.06;70.99;98641.59;5057873;28;67206;-58
2024/03/29 07:01:30;;;;;;;;;0.00;0.00;;;;;12.13;71.32;98635.81;5042793;28;70332;-53
2024/03/29 07:03:56;;;;;;;;;0.75;0.00;;;;;12.17;70.74;98644.31;5061245;28;45738;-51
2024/03/29 07:06:21;;;;;;;;;0.00;0.00;;;;;12.24;70.47;98639.50;5056910;28;45479;-50
2024/03/29 07:08:47;;;;;;;;;1.00;1.00;;;;;12.29;70.66;98643.50;5059315;28;45546;-51
2024/03/29 07:11:12;;;;;;;;;2.25;1.00;;;;;12.32;70.79;98622.31;5050136;28;45661;-52
2024/03/29 07:13:38;;;;;;;;;1.00;0.00;;;;;12.39;70.85;98627.13;5052204;28;72186;-53
2024/03/29 07:16:03;;;;;;;;;0.00;0.00;;;;;12.45;70.55;98624.94;5051779;28;69499;-48
2024/03/29 07:18:29;;;;;;;;;1.25;1.00;;;;;12.51;70.61;98623.66;5054325;28;45294;-48
2024/03/29 07:20:55;;;;;;;;;2.00;0.25;;;;;12.55;70.76;98622.50;5058475;28;45554;-53
2024/03/29 07:23:20;;;;;;;;;1.00;1.00;;;;;12.59;70.70;98615.25;5059807;28;47074;-52
2024/03/29 07:25:58;;;;;;;;;1.75;1.00;;;;;12.63;70.89;98617.56;5057107;28;45825;-50
2024/03/29 07:28:23;;;;;;;;;0.25;0.25;;;;;12.65;71.02;98605.19;5055654;28;45575;-59
2024/03/29 07:30:50;;;;;;;;;0.25;0.25;;;;;12.70;71.18;98621.44;5054661;28;75689;-57
2024/03/29 07:33:15;;;;;;;;;1.00;1.00;;;;;12.74;71.18;98619.44;5051589;28;45358;-64
2024/03/29 07:35:41;;;;;;;;;2.75;1.00;;;;;12.77;71.19;98621.84;5058999;28;45414;-58
2024/03/29 07:38:06;;;;;;;;;1.00;1.00;;;;;12.81;71.20;98636.44;5056024;28;47279;-55
2024/03/29 07:40:32;;;;;;;;;0.00;0.00;;;;;12.87;70.93;98658.78;5058182;28;49300;-56
2024/03/29 07:42:57;;;;;;;;;1.25;1.00;;;;;12.92;71.35;98651.44;5058947;28;71992;-56
2024/03/29 07:45:23;;;;;;;;;1.00;0.00;;;;;12.98;71.07;98652.78;5051427;28;45415;-54
2024/03/29 07:47:52;;;;;;;;;2.00;0.75;;;;;13.02;71.33;98651.63;5059492;28;45475;-55
2024/03/29 07:50:18;;;;;;;;;0.25;0.25;;;;;13.05;71.14;98654.03;5060204;28;45381;-55
2024/03/29 07:52:45;;;;;;;;;1.00;1.00;;;;;13.09;70.93;98660.75;5054052;28;45355;-56
2024/03/29 07:55:10;;;;;;;;;2.00;1.00;;;;;13.15;70.75;98651.59;5054869;28;45280;-54
2024/03/29 07:57:35;;;;;;;;;2.50;2.00;;;;;13.19;71.17;98653.91;5048972;28;52135;-53
2024/03/29 08:00:01;;;;;;;;;1.75;1.75;;;;;13.24;70.99;98654.44;5048008;28;75399;-54
2024/03/29 08:02:26;;;;;;;;;1.00;1.00;;;;;13.28;70.63;98665.56;5048464;28;45395;-56
2024/03/29 08:04:54;;;;;;;;;6.00;1.00;;;;;13.32;70.49;98655.69;5060556;28;45579;-54
2024/03/29 08:07:20;;;;;;;;;1.75;1.00;;;;;13.37;70.68;98659.66;5047290;28;73321;-59
2024/03/29 08:09:45;;;;;;;;;1.00;1.00;;;;;13.45;70.04;98656.47;5036741;28;48001;-53
2024/03/29 08:12:10;;;;;;;;;1.00;1.00;;;;;13.52;70.20;98655.06;5052377;28;56787;-50
2024/03/29 08:14:36;;;;;;;;;3.50;0.75;;;;;13.59;69.75;98658.09;5045303;28;45332;-53
2024/03/29 08:17:04;;;;;;;;;2.00;0.75;;;;;13.64;69.47;98648.09;5055789;28;45431;-51
2024/03/29 08:19:30;;;;;;;;;0.00;0.00;;;;;13.68;69.42;98646.91;5065274;28;46240;-50
2024/03/29 08:21:55;;;;;;;;;1.50;1.00;;;;;13.73;69.20;98665.00;5058409;28;45395;-52
2024/03/29 08:24:20;;;;;;;;;1.00;1.00;;;;;13.74;68.59;98669.28;5052419;28;66242;-53
2024/03/29 08:26:46;;;;;;;;;3.00;1.00;;;;;13.75;68.79;98679.69;5071822;28;71856;-51
2024/03/29 08:29:12;;;;;;;;;0.50;0.50;;;;;13.79;67.99;98680.28;5046647;28;45386;-52
2024/03/29 08:31:37;;;;;;;;;2.00;1.00;;;;;13.83;67.73;98693.13;5057382;28;45687;-53
2024/03/29 08:34:03;;;;;;;;;1.75;0.50;;;;;13.89;67.83;98704.13;5051669;28;45444;-50
2024/03/29 08:36:28;;;;;;;;;0.00;0.00;;;;;13.93;67.37;98698.53;5057477;28;45696;-56
2024/03/29 08:38:53;;;;;;;;;2.00;1.00;;;;;13.97;66.60;98709.66;5050819;28;47549;-53
2024/03/29 08:41:19;;;;;;;;;0.50;0.50;;;;;14.04;66.71;98703.84;5049846;28;47908;-50
2024/03/29 08:43:44;;;;;;;;;2.00;0.00;;;;;14.11;66.12;98696.34;5052098;27;45366;-52
2024/03/29 08:46:09;;;;;;;;;0.00;0.00;;;;;14.17;66.18;98703.78;5051541;28;70959;-55
2024/03/29 08:48:37;;;;;;;;;1.25;0.50;;;;;14.21;65.91;98692.06;5045866;28;46873;-52
2024/03/29 08:51:02;;;;;;;;;2.50;0.75;;;;;14.26;65.92;98686.47;5054630;28;45870;-53
2024/03/29 08:53:28;;;;;;;;;3.00;0.25;;;;;14.29;66.02;98685.38;5068320;28;45363;-49
2024/03/29 08:55:53;;;;;;;;;1.25;0.00;;;;;14.34;65.39;98685.88;5053262;28;45430;-51
2024/03/29 08:58:19;;;;;;;;;1.75;1.00;;;;;14.38;65.25;98703.13;5059813;28;62372;-47
2024/03/29 09:00:53;;;;;;;;;3.00;1.50;;;;;14.46;64.80;98706.00;5056974;28;45291;-58
2024/03/29 09:03:18;;;;;;;;;1.75;1.00;;;;;14.57;64.57;98713.94;5047765;28;45514;-54
2024/03/29 09:05:44;;;;;;;;;0.00;0.00;;;;;14.61;64.25;98714.56;5051900;28;72091;-52
2024/03/29 09:08:09;;;;;;;;;1.00;0.25;;;;;14.60;64.38;98720.78;5064396;28;46919;-52
2024/03/29 09:10:34;;;;;;;;;1.00;0.75;;;;;14.58;63.66;98730.59;5057700;28;69332;-52
2024/03/29 09:13:00;;;;;;;;;1.00;0.00;;;;;14.62;63.96;98739.94;5056979;28;58890;-51
2024/03/29 09:15:25;;;;;;;;;1.00;1.00;;;;;14.64;63.91;98753.81;5054058;28;45311;-53
2024/03/29 09:17:54;;;;;;;;;3.00;2.00;;;;;14.72;63.55;98750.59;5053856;28;69651;-53
2024/03/29 09:20:19;;;;;;;;;4.00;1.00;;;;;14.78;63.65;98744.88;5044138;28;45305;-53
2024/03/29 09:22:44;;;;;;;;;1.00;1.00;;;;;14.89;63.47;98762.47;5052194;28;45621;-53
2024/03/29 09:25:13;;;;;;;;;0.50;0.50;;;;;14.95;63.31;98775.19;5039343;28;69492;-51
2024/03/29 09:27:41;;;;;;;;;1.00;1.00;;;;;14.96;62.86;98775.06;5056147;28;46535;-53
2024/03/29 09:30:07;;;;;;;;;1.00;1.00;;;;;15.08;62.98;98790.88;5053485;28;45553;-54
2024/03/29 09:32:33;;;;;;;;;4.00;1.00;;;;;15.23;62.91;98802.03;5042056;28;45380;-50
2024/03/29 09:35:00;;;;;;;;;0.25;0.25;;;;;15.35;62.12;98804.56;5051506;28;45575;-51
2024/03/29 09:37:25;;;;;;;;;2.25;1.00;;;;;15.45;61.72;98809.13;5039424;28;47349;-54
2024/03/29 09:39:51;;;;;;;;;0.75;0.75;;;;;15.61;61.40;98803.47;5053805;28;45332;-53
2024/03/29 09:42:16;;;;;;;;;10.75;6.25;;;;;15.67;60.94;98781.88;5049512;28;64537;-57
2024/03/29 09:44:44;;;;;;;;;4.00;2.25;;;;;15.80;60.61;98766.81;5057081;28;45446;-55
2024/03/29 09:47:11;;;;;;;;;5.00;1.00;;;;;15.91;60.39;98753.56;5057799;28;46419;-54
2024/03/29 09:49:37;;;;;;;;;4.00;1.00;;;;;16.01;60.46;98763.41;5053709;28;45792;-55
2024/03/29 09:52:02;;;;;;;;;3.25;1.00;;;;;15.99;59.63;98773.22;5049217;28;65280;-53
2024/03/29 09:54:28;;;;;;;;;1.00;1.00;;;;;15.98;59.74;98777.66;5048141;28;45601;-53
2024/03/29 09:56:56;;;;;;;;;2.00;0.25;;;;;16.04;59.22;98786.88;5049669;28;45466;-53
2024/03/29 09:59:21;;;;;;;;;1.00;1.00;;;;;16.07;59.04;98786.63;5058309;28;45389;-54
2024/03/29 10:01:48;;;;;;;;;2.50;1.25;;;;;16.12;59.50;98795.03;5059222;28;45270;-54
2024/03/29 10:04:15;;;;;;;;;2.00;1.00;;;;;16.13;58.73;98810.75;5048659;28;45248;-57
2024/03/29 10:06:43;;;;;;;;;3.00;1.00;;;;;16.11;58.29;98798.63;5047319;28;45281;-57
2024/03/29 10:09:09;;;;;;;;;1.00;1.00;;;;;16.14;58.11;98799.19;5048140;27;45840;-54
2024/03/29 10:11:34;;;;;;;;;2.50;1.00;;;;;16.22;58.19;98803.03;5042946;28;45623;-49
2024/03/29 10:14:00;;;;;;;;;3.75;1.00;;;;;16.27;58.11;98806.13;5052752;28;71427;-53
2024/03/29 10:16:25;;;;;;;;;1.00;1.00;;;;;16.22;57.39;98805.66;5045489;27;45309;-54
2024/03/29 10:18:51;;;;;;;;;2.00;0.00;;;;;16.18;57.30;98799.78;5044121;28;45452;-57
2024/03/29 10:21:16;;;;;;;;;0.50;0.00;;;;;16.10;56.40;98802.22;5059548;28;45292;-58
2024/03/29 10:23:42;;;;;;;;;3.50;1.00;;;;;15.96;57.10;98795.44;5055166;28;45535;-60
2024/03/29 10:26:08;;;;;;;;;1.25;1.00;;;;;15.87;56.83;98791.72;5059279;28;45564;-62
2024/03/29 10:28:35;;;;;;;;;3.25;1.25;;;;;15.85;56.89;98793.66;5062521;28;45268;-55
2024/03/29 10:31:03;;;;;;;;;0.50;0.50;;;;;15.92;57.16;98792.19;5056922;28;45441;-54
2024/03/29 10:33:30;;;;;;;;;2.25;1.50;;;;;16.09;57.28;98780.25;5052972;28;45570;-52
2024/03/29 10:35:56;;;;;;;;;3.00;1.25;;;;;16.24;56.57;98791.38;5060473;28;46084;-58
2024/03/29 10:38:21;;;;;;;;;0.50;0.50;;;;;16.38;56.39;98797.31;5060993;28;45415;-57
2024/03/29 10:40:48;;;;;;;;;0.50;0.50;;;;;16.48;55.72;98787.69;5056234;28;45376;-55
2024/03/29 10:43:16;;;;;;;;;1.00;1.00;;;;;16.57;55.57;98794.00;5054134;28;48171;-55
2024/03/29 10:45:42;;;;;;;;;1.00;1.00;;;;;16.69;55.08;98790.34;5037842;28;47719;-57
2024/03/29 10:48:09;;;;;;;;;2.50;0.50;;;;;16.70;54.90;98782.28;5051789;28;45475;-54
2024/03/29 10:50:40;;;;;;;;;2.50;0.50;;;;;16.74;54.52;98780.22;5060816;28;45529;-58
2024/03/29 10:53:06;;;;;;;;;1.75;0.00;;;;;16.79;54.66;98777.22;5053199;28;45239;-55
2024/03/29 10:55:33;;;;;;;;;0.00;0.00;;;;;16.80;54.38;98768.31;5059365;28;46120;-54
2024/03/29 10:58:00;;;;;;;;;1.50;0.50;;;;;16.86;54.20;98759.91;5050647;28;45987;-54
2024/03/29 11:00:28;;;;;;;;;1.25;0.25;;;;;16.90;54.10;98761.31;5059507;28;45325;-52
2024/03/29 11:03:02;;;;;;;;;2.00;1.00;;;;;16.87;53.19;98765.06;5053483;28;45430;-58
2024/03/29 11:05:30;;;;;;;;;1.25;1.00;;;;;16.91;53.60;98763.00;5058518;28;45862;-51
2024/03/29 11:07:56;;;;;;;;;1.00;0.50;;;;;16.95;53.79;98771.50;5059330;28;45429;-53
2024/03/29 11:10:27;;;;;;;;;1.00;0.75;;;;;17.01;53.12;98777.09;5067255;28;45275;-56
2024/03/29 11:13:34;;;;;;;;;2.50;0.00;;;;;17.11;52.87;98776.31;5060961;28;45327;-56
2024/03/29 11:16:00;;;;;;;;;0.50;0.00;;;;;17.18;52.64;98785.41;5056428;28;45636;-58
2024/03/29 11:18:28;;;;;;;;;0.50;0.00;;;;;17.24;51.96;98792.78;5043724;28;45636;-59
2024/03/29 11:20:54;;;;;;;;;0.25;0.00;;;;;17.25;52.04;98792.66;5055884;28;45315;-55
2024/03/29 11:23:21;;;;;;;;;0.75;0.00;;;;;17.29;51.55;98792.41;5048507;28;45717;-57
2024/03/29 11:25:51;;;;;;;;;0.25;0.25;;;;;17.32;51.36;98778.94;5052128;28;46834;-55
2024/03/29 11:28:29;;;;;;;;;1.50;0.50;;;;;17.36;51.56;98804.94;5056268;28;45751;-55
2024/03/29 11:31:04;;;;;;;;;1.75;0.75;;;;;17.33;51.00;98807.03;5053538;28;45284;-54
2024/03/29 11:33:34;;;;;;;;;0.25;0.25;;;;;17.29;50.43;98809.09;5058716;28;45330;-54
2024/03/29 11:36:13;;;;;;;;;0.25;0.25;;;;;17.25;51.12;98800.59;5054387;28;46566;-50